Time;durP1;ratioP1;P1;durP2;ratioP2;P2;SDS_P1;SDS_P2;PMS_P1;PMS_P2;Temp;Humidity;BMP_temperature;BMP_pressure;BME280_temperature;BME280_humidity;BME280_pressure;Samples;Min_cycle;Max_cycle;Signal;HPM_P1;HPM_P2
2023/02/18 00:02:16;;;;;;;36.05;16.98;;;;;;;-7.31;63.21;99937.16;5051906;28;20153;-46
2023/02/18 00:04:41;;;;;;;38.97;17.63;;;;;;;-7.37;63.13;99930.22;5052738;28;20116;-47
2023/02/18 00:07:07;;;;;;;41.30;17.45;;;;;;;-7.43;63.37;99927.66;5052674;28;20025;-49
2023/02/18 00:09:32;;;;;;;37.38;16.90;;;;;;;-7.64;63.80;99888.78;5051959;28;20076;-48
2023/02/18 00:11:57;;;;;;;36.58;17.05;;;;;;;-7.44;63.61;99928.53;5052138;28;20029;-50
2023/02/18 00:14:23;;;;;;;33.30;15.90;;;;;;;-7.46;63.54;99932.91;5052407;28;20345;-47
2023/02/18 00:16:48;;;;;;;35.20;15.80;;;;;;;-7.42;63.18;99916.41;5052278;28;20541;-45
2023/02/18 00:19:17;;;;;;;35.53;16.10;;;;;;;-7.48;63.64;99917.28;5052113;28;20032;-46
2023/02/18 00:21:43;;;;;;;34.45;15.30;;;;;;;-7.48;63.64;99917.28;5055292;28;20404;-46
2023/02/18 00:24:12;;;;;;;32.20;15.43;;;;;;;-7.42;63.26;99912.06;5055960;28;20132;-45
2023/02/18 00:26:37;;;;;;;31.60;15.52;;;;;;;-7.40;63.02;99909.44;5056090;28;20041;-47
2023/02/18 00:29:03;;;;;;;32.38;15.88;;;;;;;-7.46;63.17;99918.16;5055447;28;20079;-45
2023/02/18 00:31:34;;;;;;;38.67;16.08;;;;;;;-7.46;63.57;99902.56;5055355;28;20044;-48
2023/02/18 00:34:01;;;;;;;29.83;15.57;;;;;;;-7.50;63.26;99914.72;5055987;28;20063;-46
2023/02/18 00:36:27;;;;;;;35.22;15.27;;;;;;;-7.51;63.16;99892.19;5055874;28;20048;-51
2023/02/18 00:38:55;;;;;;;32.17;14.88;;;;;;;-7.51;63.36;99899.97;5055109;28;20025;-51
2023/02/18 00:41:23;;;;;;;28.80;14.55;;;;;;;-7.53;63.29;99900.84;5055320;28;20032;-46
2023/02/18 00:43:48;;;;;;;29.42;14.43;;;;;;;-7.58;63.61;99887.88;5055774;28;20068;-48
2023/02/18 00:46:14;;;;;;;31.52;14.85;;;;;;;-7.52;63.20;99887.84;5055883;28;20056;-46
2023/02/18 00:48:40;;;;;;;32.22;15.27;;;;;;;-7.61;63.22;99882.69;5055139;28;20025;-47
2023/02/18 00:51:06;;;;;;;31.92;14.65;;;;;;;-7.56;63.27;99893.94;5055217;28;20043;-46
2023/02/18 00:53:32;;;;;;;27.42;13.52;;;;;;;-7.49;63.47;99889.53;5055353;28;20075;-48
2023/02/18 00:55:58;;;;;;;29.67;15.43;;;;;;;-7.55;63.47;99876.59;5055555;28;20440;-46
2023/02/18 00:58:24;;;;;;;30.52;14.05;;;;;;;-7.53;63.28;99882.63;5054996;28;20051;-48
2023/02/18 01:00:50;;;;;;;30.27;14.50;;;;;;;-7.53;63.23;99880.03;5054609;28;20036;-47
2023/02/18 01:03:16;;;;;;;28.70;14.30;;;;;;;-7.43;63.23;99868.72;5055198;28;20094;-48
2023/02/18 01:05:41;;;;;;;30.25;13.93;;;;;;;-7.44;62.79;99873.94;5054561;28;20029;-45
2023/02/18 01:08:08;;;;;;;27.65;13.93;;;;;;;-7.50;63.04;99860.09;5054215;28;20470;-45
2023/02/18 01:10:35;;;;;;;28.92;14.48;;;;;;;-7.52;63.48;99858.38;5054532;28;20063;-46
2023/02/18 01:13:03;;;;;;;29.95;14.35;;;;;;;-7.58;63.69;99845.41;5054756;28;20025;-47
2023/02/18 01:15:29;;;;;;;27.75;14.18;;;;;;;-7.59;63.40;99828.06;5054607;28;20032;-47
2023/02/18 01:17:54;;;;;;;34.92;15.57;;;;;;;-7.60;63.67;99832.41;5054803;28;20048;-47
2023/02/18 01:20:20;;;;;;;32.97;15.50;;;;;;;-7.64;63.15;99823.78;5054465;28;20056;-47
2023/02/18 01:22:45;;;;;;;30.45;14.30;;;;;;;-7.63;63.66;99816.81;5054994;28;20072;-46
2023/02/18 01:25:11;;;;;;;31.52;15.68;;;;;;;-7.67;63.59;99821.19;5054520;28;20078;-46
2023/02/18 01:27:38;;;;;;;33.70;15.55;;;;;;;-7.72;63.88;99807.34;5054418;28;20083;-52
2023/02/18 01:30:05;;;;;;;31.52;14.30;;;;;;;-7.72;64.15;99814.28;5054606;28;20068;-50
2023/02/18 01:32:31;;;;;;;36.70;15.18;;;;;;;-7.77;63.26;99798.72;5053401;28;20033;-45
2023/02/18 01:34:56;;;;;;;31.10;15.43;;;;;;;-7.74;63.58;99803.88;5054298;28;20383;-48
2023/02/18 01:37:22;;;;;;;28.27;12.07;;;;;;;-7.71;63.52;99814.28;5054967;28;20248;-48
2023/02/18 01:39:47;;;;;;;31.85;15.15;;;;;;;-7.67;63.43;99796.91;5054472;28;20044;-49
2023/02/18 01:42:22;;;;;;;31.67;14.70;;;;;;;-7.71;63.15;99803.91;5054206;28;20452;-52
2023/02/18 01:44:48;;;;;;;31.98;14.68;;;;;;;-7.79;63.49;99790.94;5054907;28;20112;-47
2023/02/18 01:47:14;;;;;;;33.00;15.68;;;;;;;-7.81;63.40;99792.69;5054193;28;20028;-47
2023/02/18 01:49:41;;;;;;;32.72;14.90;;;;;;;-7.86;63.20;99785.78;5054134;28;20063;-48
2023/02/18 01:52:22;;;;;;;30.08;14.77;;;;;;;-7.89;63.44;99763.25;5054573;28;20102;-48
2023/02/18 01:54:52;;;;;;;30.02;13.23;;;;;;;-7.86;63.70;99772.78;5054199;28;20037;-46
2023/02/18 01:57:24;;;;;;;36.10;14.57;;;;;;;-7.82;63.72;99779.69;5054202;28;20141;-46
2023/02/18 02:00:05;;;;;;;34.33;14.45;;;;;;;-7.81;63.79;99768.41;5054467;28;20029;-46
2023/02/18 02:02:36;;;;;;;33.67;14.73;;;;;;;-7.81;62.94;99745.91;5054272;28;20456;-47
2023/02/18 02:05:02;;;;;;;30.83;13.77;;;;;;;-7.67;62.93;99753.59;5053794;28;20035;-48
2023/02/18 02:07:29;;;;;;;31.33;14.80;;;;;;;-7.62;63.23;99758.75;5053699;28;20037;-47
2023/02/18 02:09:57;;;;;;;32.80;14.85;;;;;;;-7.49;63.17;99754.31;5054232;28;20040;-47
2023/02/18 02:12:53;;;;;;;31.42;14.90;;;;;;;-7.17;62.31;99757.53;5054058;28;20028;-47
2023/02/18 02:15:31;;;;;;;30.88;14.93;;;;;;;-7.15;62.29;99750.56;5053811;28;20424;-47
2023/02/18 02:18:24;;;;;;;31.17;14.82;;;;;;;-7.11;62.38;99765.28;5053824;28;20037;-47
2023/02/18 02:21:11;;;;;;;30.08;14.02;;;;;;;-7.03;61.88;99742.66;5054351;28;20037;-46
2023/02/18 02:24:14;;;;;;;33.47;13.98;;;;;;;-6.93;61.89;99733.03;5053504;28;20347;-48
2023/02/18 02:26:51;;;;;;;20.65;8.88;;;;;;;-6.82;61.52;99728.53;5053360;28;20195;-46
2023/02/18 02:29:16;;;;;;;28.70;13.13;;;;;;;-6.92;61.46;99703.50;5053977;28;20029;-45
2023/02/18 02:31:50;;;;;;;27.95;12.70;;;;;;;-6.76;61.25;99717.22;5053698;28;20037;-47
2023/02/18 02:34:52;;;;;;;26.85;12.75;;;;;;;-6.86;61.97;99718.19;5052937;28;20049;-47
2023/02/18 02:37:26;;;;;;;26.40;12.75;;;;;;;-6.80;62.35;99728.53;5053524;28;20061;-46
2023/02/18 02:40:00;;;;;;;33.20;15.50;;;;;;;-6.65;61.35;99730.09;5053789;28;20037;-56
2023/02/18 02:42:38;;;;;;;29.52;14.65;;;;;;;-6.66;61.34;99723.16;5053232;28;20075;-47
2023/02/18 02:45:36;;;;;;;36.08;14.57;;;;;;;-6.69;61.81;99718.00;5052798;28;20029;-47
2023/02/18 02:48:19;;;;;;;27.73;13.07;;;;;;;-6.59;61.61;99721.38;5052455;28;20043;-46
2023/02/18 02:51:11;;;;;;;26.55;12.35;;;;;;;-6.59;61.07;99719.59;5053749;28;20112;-49
2023/02/18 02:53:39;;;;;;;29.38;14.45;;;;;;;-6.74;61.48;99714.59;5052911;28;20087;-48
2023/02/18 02:56:05;;;;;;;32.78;14.30;;;;;;;-6.80;62.35;99698.13;5053148;28;20033;-48
2023/02/18 02:58:31;;;;;;;29.85;14.98;;;;;;;-6.78;61.68;99706.78;5053147;28;20469;-48
2023/02/18 03:01:14;;;;;;;30.95;14.57;;;;;;;-6.67;61.79;99695.41;5053126;28;20031;-46
2023/02/18 03:04:06;;;;;;;24.75;12.57;;;;;;;-6.70;61.97;99690.25;5052697;28;20356;-46
2023/02/18 03:06:52;;;;;;;19.55;8.63;;;;;;;-6.45;60.89;99684.72;5052771;28;20094;-47
2023/02/18 03:09:44;;;;;;;28.30;13.15;;;;;;;-6.64;61.23;99677.97;5052596;28;20065;-48
2023/02/18 03:12:24;;;;;;;24.40;12.07;;;;;;;-6.73;61.42;99685.06;5052517;28;20071;-47
2023/02/18 03:15:11;;;;;;;28.30;13.30;;;;;;;-6.75;61.65;99702.44;5052766;28;20470;-47
2023/02/18 03:17:48;;;;;;;27.05;13.13;;;;;;;-6.82;62.07;99676.47;5052911;28;20039;-46
2023/02/18 03:20:52;;;;;;;25.90;11.60;;;;;;;-6.65;61.63;99689.28;5052468;28;20025;-47
2023/02/18 03:23:24;;;;;;;31.77;13.77;;;;;;;-6.85;61.87;99671.31;5050694;28;20033;-48
2023/02/18 03:25:50;;;;;;;30.65;15.05;;;;;;;-7.01;61.92;99668.03;5052541;28;20053;-47
2023/02/18 03:28:21;;;;;;;33.75;15.85;;;;;;;-7.08;62.11;99675.03;5052354;28;20094;-48
2023/02/18 03:30:51;;;;;;;39.38;16.92;;;;;;;-7.23;63.09;99680.41;5052246;28;20060;-46
2023/02/18 03:33:25;;;;;;;40.17;18.30;;;;;;;-7.20;62.90;99654.38;5052551;28;20049;-48
2023/02/18 03:35:54;;;;;;;41.80;18.52;;;;;;;-7.24;63.56;99644.84;5052301;28;20041;-46
2023/02/18 03:38:26;;;;;;;39.72;17.67;;;;;;;-7.10;63.13;99644.72;5052387;28;20439;-46
2023/02/18 03:40:51;;;;;;;45.50;19.33;;;;;;;-7.18;63.08;99621.38;5052735;28;20419;-48
2023/02/18 03:43:17;;;;;;;51.38;19.92;;;;;;;-7.16;63.25;99619.63;5050872;28;20060;-46
2023/02/18 03:45:42;;;;;;;40.97;19.27;;;;;;;-7.09;63.22;99616.06;5052150;28;20040;-45
2023/02/18 03:48:08;;;;;;;43.92;19.77;;;;;;;-7.08;63.89;99612.56;5052764;28;20036;-47
2023/02/18 03:50:34;;;;;;;41.38;17.77;;;;;;;-6.98;63.81;99630.69;5052451;28;20036;-47
2023/02/18 03:52:59;;;;;;;48.55;20.23;;;;;;;-6.91;63.43;99619.31;5052399;28;20037;-48
2023/02/18 03:55:24;;;;;;;45.63;17.98;;;;;;;-6.80;62.39;99608.78;5054072;28;20029;-46
2023/02/18 03:57:50;;;;;;;54.38;22.30;;;;;;;-6.75;61.97;99601.75;5056533;28;20029;-49
2023/02/18 04:00:16;;;;;;;57.05;22.63;;;;;;;-6.96;63.03;99606.38;5056101;28;20025;-46
2023/02/18 04:02:42;;;;;;;58.22;24.75;;;;;;;-6.86;62.79;99596.69;5056036;28;20467;-50
2023/02/18 04:05:07;;;;;;;59.53;23.45;;;;;;;-6.98;63.00;99595.09;5056795;28;20036;-45
2023/02/18 04:07:33;;;;;;;55.47;22.85;;;;;;;-6.98;62.86;99597.72;5056502;28;20032;-47
2023/02/18 04:09:58;;;;;;;62.40;25.27;;;;;;;-6.93;62.61;99600.28;5056186;28;20032;-45
2023/02/18 04:12:24;;;;;;;51.05;21.25;;;;;;;-6.92;62.37;99602.84;5056086;28;20029;-46
2023/02/18 04:14:49;;;;;;;58.97;25.25;;;;;;;-6.93;62.55;99600.28;5056337;28;20036;-45
2023/02/18 04:17:15;;;;;;;59.83;23.13;;;;;;;-6.97;62.38;99575.16;5056273;28;20031;-46
2023/02/18 04:19:40;;;;;;;67.45;26.13;;;;;;;-6.99;62.69;99574.28;5055625;28;20031;-47
2023/02/18 04:22:05;;;;;;;54.08;23.38;;;;;;;-7.01;62.90;99584.75;5055839;28;20029;-49
2023/02/18 04:24:31;;;;;;;53.67;21.08;;;;;;;-7.08;63.02;99575.31;5055220;28;20033;-47
2023/02/18 04:26:56;;;;;;;48.92;21.55;;;;;;;-7.02;62.63;99566.53;5056276;28;20419;-46
2023/02/18 04:29:22;;;;;;;50.80;22.35;;;;;;;-7.02;63.02;99563.94;5055494;28;20037;-45
2023/02/18 04:31:47;;;;;;;52.45;23.35;;;;;;;-7.08;62.90;99550.13;5055608;28;20033;-45
2023/02/18 04:34:13;;;;;;;49.67;21.75;;;;;;;-7.07;63.21;99548.41;5055671;28;20049;-47
2023/02/18 04:36:38;;;;;;;52.83;22.15;;;;;;;-7.02;63.26;99550.91;5055924;28;20041;-46
2023/02/18 04:39:04;;;;;;;49.17;21.80;;;;;;;-7.01;63.50;99545.72;5055409;28;20040;-47
2023/02/18 04:41:29;;;;;;;50.03;21.25;;;;;;;-6.97;63.53;99552.59;5055463;28;20048;-51
2023/02/18 04:43:55;;;;;;;46.65;20.52;;;;;;;-6.92;63.09;99548.16;5055664;28;20032;-46
2023/02/18 04:46:20;;;;;;;53.45;22.75;;;;;;;-6.90;63.61;99549.88;5055819;28;20041;-46
2023/02/18 04:48:46;;;;;;;50.10;22.55;;;;;;;-6.87;63.66;99537.72;5055276;28;20082;-49
2023/02/18 04:51:11;;;;;;;42.17;19.08;;;;;;;-6.77;62.87;99547.09;5054954;28;20420;-50
2023/02/18 04:53:37;;;;;;;45.85;20.40;;;;;;;-6.77;62.97;99544.50;5055549;28;20033;-48
2023/02/18 04:56:03;;;;;;;44.28;20.85;;;;;;;-6.78;62.71;99547.97;5055290;28;20033;-49
2023/02/18 04:58:28;;;;;;;40.13;17.15;;;;;;;-6.65;62.04;99555.63;5055335;28;20032;-46
2023/02/18 05:00:58;;;;;;;51.92;22.73;;;;;;;-6.78;62.47;99545.38;5055010;28;20441;-46
2023/02/18 05:03:23;;;;;;;53.03;22.58;;;;;;;-6.80;62.28;99544.53;5054844;28;20021;-46
2023/02/18 05:05:48;;;;;;;48.75;21.83;;;;;;;-6.90;62.69;99553.38;5054523;28;20027;-45
2023/02/18 05:08:15;;;;;;;43.70;20.77;;;;;;;-6.93;62.65;99532.59;5054969;28;20040;-48
2023/02/18 05:10:40;;;;;;;48.85;21.73;;;;;;;-6.97;62.61;99513.53;5054677;28;20036;-46
2023/02/18 05:13:06;;;;;;;45.10;20.83;;;;;;;-6.84;62.08;99522.03;5054745;28;20040;-47
2023/02/18 05:15:31;;;;;;;44.40;19.80;;;;;;;-6.84;62.36;99526.41;5054622;28;20028;-51
2023/02/18 05:17:57;;;;;;;39.53;19.00;;;;;;;-6.78;62.05;99534.97;5054898;28;20033;-47
2023/02/18 05:20:23;;;;;;;44.30;18.83;;;;;;;-6.88;62.28;99519.50;5054869;28;20041;-46
2023/02/18 05:22:48;;;;;;;38.17;19.33;;;;;;;-6.85;62.22;99525.53;5054531;28;20032;-45
2023/02/18 05:25:13;;;;;;;42.08;19.65;;;;;;;-6.86;62.12;99513.41;5054536;28;20068;-49
2023/02/18 05:27:39;;;;;;;42.08;19.38;;;;;;;-6.82;62.48;99503.81;5054702;28;20115;-48
2023/02/18 05:30:05;;;;;;;39.90;17.48;;;;;;;-6.69;62.06;99499.28;5054332;28;20029;-47
2023/02/18 05:32:31;;;;;;;36.75;17.30;;;;;;;-6.61;62.40;99492.19;5054617;28;20025;-47
2023/02/18 05:34:57;;;;;;;37.05;18.42;;;;;;;-6.55;61.80;99488.66;5054690;28;20056;-46
2023/02/18 05:37:22;;;;;;;38.10;18.70;;;;;;;-6.58;62.77;99489.53;5054392;28;20449;-47
2023/02/18 05:39:48;;;;;;;36.63;18.05;;;;;;;-6.44;61.94;99486.72;5054060;28;20029;-46
2023/02/18 05:42:13;;;;;;;38.63;18.38;;;;;;;-6.42;62.38;99471.06;5054445;28;20040;-48
2023/02/18 05:44:39;;;;;;;41.80;18.27;;;;;;;-6.24;61.14;99472.50;5054481;28;20117;-47
2023/02/18 05:47:08;;;;;;;40.25;19.65;;;;;;;-6.30;61.63;99464.78;5054249;28;20033;-49
2023/02/18 05:49:35;;;;;;;39.15;17.05;;;;;;;-6.30;60.49;99431.75;5054141;28;20044;-50
2023/02/18 05:52:01;;;;;;;45.28;20.48;;;;;;;-6.36;61.33;99437.09;5054745;28;20040;-46
2023/02/18 05:54:27;;;;;;;34.05;16.98;;;;;;;-6.29;60.90;99445.66;5054037;28;20052;-49
2023/02/18 05:56:52;;;;;;;37.35;17.40;;;;;;;-6.16;60.77;99435.88;5053751;28;20028;-47
2023/02/18 05:59:19;;;;;;;41.40;19.83;;;;;;;-6.29;61.04;99443.91;5054251;28;20429;-52
2023/02/18 06:01:46;;;;;;;42.13;19.23;;;;;;;-6.16;60.66;99425.44;5054418;28;20043;-46
2023/02/18 06:04:12;;;;;;;43.83;20.85;;;;;;;-6.30;60.77;99428.31;5053864;28;20036;-48
2023/02/18 06:06:38;;;;;;;32.40;15.52;;;;;;;-6.05;60.47;99439.13;5053711;28;20033;-49
2023/02/18 06:09:04;;;;;;;49.78;22.30;;;;;;;-6.17;60.36;99436.75;5054200;28;20344;-51
2023/02/18 06:11:30;;;;;;;43.75;21.83;;;;;;;-6.23;60.23;99425.56;5054465;28;20033;-49
2023/02/18 06:13:56;;;;;;;48.30;23.00;;;;;;;-6.16;60.07;99422.84;5053835;28;20040;-47
2023/02/18 06:16:22;;;;;;;45.78;21.27;;;;;;;-6.20;60.84;99435.94;5053348;28;20025;-46
2023/02/18 06:18:47;;;;;;;39.78;17.95;;;;;;;-6.12;59.93;99458.38;5053019;28;20474;-46
2023/02/18 06:21:14;;;;;;;46.92;22.35;;;;;;;-6.06;59.60;99419.16;5054048;28;20033;-46
2023/02/18 06:23:39;;;;;;;49.08;21.77;;;;;;;-6.24;60.29;99429.06;5053604;28;20037;-48
2023/02/18 06:26:05;;;;;;;48.47;22.77;;;;;;;-6.50;60.29;99388.72;5053316;28;20051;-56
2023/02/18 06:28:30;;;;;;;44.72;22.10;;;;;;;-6.24;60.44;99403.00;5053926;28;20033;-48
2023/02/18 06:30:56;;;;;;;32.63;14.48;;;;;;;-6.09;60.82;99432.25;5053900;28;20349;-48
2023/02/18 06:33:21;;;;;;;45.47;19.60;;;;;;;-5.98;60.34;99419.00;5053331;28;20329;-49
2023/02/18 06:35:58;;;;;;;38.17;16.55;;;;;;;-5.73;59.45;99397.63;5053308;28;20509;-47
2023/02/18 06:38:24;;;;;;;41.30;18.13;;;;;;;-5.57;58.44;99400.78;5053547;28;20352;-47
2023/02/18 06:40:50;;;;;;;33.67;17.23;;;;;;;-5.39;57.57;99391.72;5053596;28;20059;-46
2023/02/18 06:43:16;;;;;;;33.90;16.00;;;;;;;-5.37;58.17;99393.38;5053363;28;20072;-48
2023/02/18 06:45:41;;;;;;;34.30;16.88;;;;;;;-5.10;57.59;99403.25;5052878;28;20033;-47
2023/02/18 06:48:07;;;;;;;32.13;16.13;;;;;;;-5.01;56.98;99376.91;5053524;28;20040;-51
2023/02/18 06:50:32;;;;;;;34.28;16.10;;;;;;;-4.92;57.15;99368.88;5054046;28;20029;-48
2023/02/18 06:52:58;;;;;;;19.20;9.77;;;;;;;-4.50;55.67;99377.38;5052895;28;20033;-49
2023/02/18 06:55:24;;;;;;;18.88;8.82;;;;;;;-4.32;54.55;99376.06;5053074;28;20064;-48
2023/02/18 06:57:49;;;;;;;30.88;15.18;;;;;;;-4.76;55.04;99365.84;5052791;28;20033;-46
2023/02/18 07:00:15;;;;;;;27.60;13.50;;;;;;;-4.70;55.30;99380.53;5052615;28;20383;-46
2023/02/18 07:02:41;;;;;;;24.13;11.98;;;;;;;-4.30;54.89;99361.19;5052894;28;20025;-48
2023/02/18 07:05:06;;;;;;;21.63;10.10;;;;;;;-3.82;53.45;99353.78;5053191;28;20490;-47
2023/02/18 07:07:32;;;;;;;26.42;12.98;;;;;;;-3.64;52.83;99352.38;5052502;28;20044;-47
2023/02/18 07:09:57;;;;;;;25.98;13.52;;;;;;;-3.36;52.37;99335.81;5052973;28;20087;-45
2023/02/18 07:12:23;;;;;;;23.58;11.68;;;;;;;-3.23;51.77;99350.25;5052376;28;20029;-46
2023/02/18 07:14:48;;;;;;;18.23;9.60;;;;;;;-2.98;50.92;99335.50;5052602;28;20032;-49
2023/02/18 07:17:13;;;;;;;17.13;8.65;;;;;;;-2.52;50.67;99336.56;5052591;28;20033;-47
2023/02/18 07:19:39;;;;;;;18.60;10.10;;;;;;;-2.23;48.93;99329.44;5052372;28;20037;-49
2023/02/18 07:22:04;;;;;;;16.83;9.43;;;;;;;-2.08;48.76;99314.06;5052974;28;20040;-48
2023/02/18 07:24:30;;;;;;;15.70;9.05;;;;;;;-2.15;47.63;99323.06;5052525;28;20055;-48
2023/02/18 07:26:55;;;;;;;18.40;9.60;;;;;;;-2.60;49.39;99309.78;5052216;28;20060;-48
2023/02/18 07:29:21;;;;;;;20.65;10.68;;;;;;;-3.05;49.87;99313.88;5052484;28;20119;-51
2023/02/18 07:31:46;;;;;;;17.63;9.45;;;;;;;-3.24;50.69;99347.66;5052624;28;20036;-47
2023/02/18 07:34:12;;;;;;;14.48;8.48;;;;;;;-3.47;51.46;99317.81;5052093;28;20048;-50
2023/02/18 07:36:37;;;;;;;16.50;9.68;;;;;;;-3.59;51.78;99334.75;5052482;28;20478;-47
2023/02/18 07:39:03;;;;;;;12.40;6.22;;;;;;;-3.34;50.56;99300.84;5052824;28;20123;-50
2023/02/18 07:41:28;;;;;;;15.43;9.00;;;;;;;-3.67;51.67;99294.91;5052369;28;20332;-48
2023/02/18 07:43:54;;;;;;;15.90;7.40;;;;;;;-3.46;50.60;99302.09;5052397;28;20087;-47
2023/02/18 07:46:19;;;;;;;14.68;8.43;;;;;;;-3.55;51.20;99322.44;5052578;28;20504;-48
2023/02/18 07:48:45;;;;;;;15.18;8.75;;;;;;;-3.71;51.64;99290.69;5052689;28;20432;-49
2023/02/18 07:51:11;;;;;;;13.93;7.82;;;;;;;-3.35;50.77;99272.97;5052383;28;20432;-52
2023/02/18 07:53:37;;;;;;;16.08;8.30;;;;;;;-3.30;51.25;99264.09;5052253;28;20043;-50
2023/02/18 07:56:04;;;;;;;12.98;6.75;;;;;;;-3.17;50.21;99266.25;5052673;28;20048;-47
2023/02/18 07:58:33;;;;;;;13.30;8.30;;;;;;;-3.30;51.59;99264.94;5052265;28;20076;-50
2023/02/18 08:00:59;;;;;;;15.55;8.45;;;;;;;-2.82;49.69;99262.47;5052038;28;20083;-49
2023/02/18 08:03:30;;;;;;;13.20;7.85;;;;;;;-2.68;49.87;99270.72;5052262;28;20033;-48
2023/02/18 08:05:56;;;;;;;14.52;8.20;;;;;;;-2.60;49.52;99288.81;5052419;28;20029;-47
2023/02/18 08:08:24;;;;;;;11.73;7.10;;;;;;;-2.77;49.76;99271.91;5052598;28;20654;-48
2023/02/18 08:10:50;;;;;;;14.13;5.72;;;;;;;-2.96;49.94;99261.19;5052137;28;20112;-50
2023/02/18 08:13:16;;;;;;;9.40;6.00;;;;;;;-3.46;51.13;99251.50;5052004;28;20083;-47
2023/02/18 08:15:41;;;;;;;13.80;7.63;;;;;;;-3.70;52.10;99253.97;5052392;28;20028;-59
2023/02/18 08:18:12;;;;;;;14.05;7.97;;;;;;;-3.83;53.20;99257.91;5052526;28;20440;-49
2023/02/18 08:20:38;;;;;;;12.10;6.38;;;;;;;-3.69;52.50;99226.91;5052115;28;20021;-47
2023/02/18 08:23:05;;;;;;;11.82;5.93;;;;;;;-3.66;52.12;99223.34;5051874;28;20025;-47
2023/02/18 08:25:30;;;;;;;13.35;6.97;;;;;;;-3.80;52.90;99229.88;5052361;28;20029;-47
2023/02/18 08:27:56;;;;;;;14.52;8.32;;;;;;;-4.03;54.30;99235.81;5052111;28;20454;-48
2023/02/18 08:30:22;;;;;;;13.98;8.10;;;;;;;-4.06;54.29;99247.22;5051865;28;20025;-48
2023/02/18 08:32:47;;;;;;;14.02;7.75;;;;;;;-3.96;54.34;99239.94;5051677;28;20025;-47
2023/02/18 08:35:13;;;;;;;11.57;6.80;;;;;;;-3.84;53.31;99250.94;5052062;28;20057;-47
2023/02/18 08:37:39;;;;;;;10.52;5.10;;;;;;;-3.77;53.82;99226.31;5052387;28;20064;-48
2023/02/18 08:40:05;;;;;;;16.08;7.53;;;;;;;-3.82;53.61;99221.22;5052070;28;20032;-47
2023/02/18 08:42:30;;;;;;;14.85;7.35;;;;;;;-4.03;54.86;99205.28;5054601;28;20028;-48
2023/02/18 08:44:56;;;;;;;14.23;7.13;;;;;;;-3.86;54.40;99205.66;5055698;28;20117;-49
2023/02/18 08:47:21;;;;;;;12.77;7.28;;;;;;;-3.82;54.21;99202.91;5055450;28;20039;-49
2023/02/18 08:49:47;;;;;;;10.82;6.72;;;;;;;-3.80;54.00;99195.84;5055216;28;20420;-54
2023/02/18 08:52:12;;;;;;;13.35;6.70;;;;;;;-3.81;54.48;99188.91;5055340;28;20438;-48
2023/02/18 08:54:38;;;;;;;14.23;7.53;;;;;;;-3.92;54.69;99163.09;5055029;28;20036;-49
2023/02/18 08:57:03;;;;;;;10.55;6.35;;;;;;;-3.72;55.09;99190.38;5055010;28;20047;-46
2023/02/18 08:59:29;;;;;;;14.60;6.10;;;;;;;-3.65;54.33;99188.44;5054929;28;20099;-47
2023/02/18 09:01:54;;;;;;;12.27;6.63;;;;;;;-3.62;54.16;99183.97;5054999;28;20116;-49
2023/02/18 09:04:20;;;;;;;8.60;4.63;;;;;;;-3.52;54.12;99167.94;5055251;28;20108;-47
2023/02/18 09:06:47;;;;;;;12.05;7.10;;;;;;;-3.76;54.92;99168.69;5054761;28;20033;-47
2023/02/18 09:09:12;;;;;;;11.00;6.65;;;;;;;-3.79;54.90;99167.97;5054982;28;20112;-48
2023/02/18 09:11:38;;;;;;;13.93;7.10;;;;;;;-3.80;55.23;99159.25;5054981;28;20115;-46
2023/02/18 09:14:04;;;;;;;9.23;5.82;;;;;;;-3.80;54.54;99117.38;5054718;28;20112;-48
2023/02/18 09:16:29;;;;;;;19.42;4.85;;;;;;;-3.45;54.26;99140.66;5054801;28;20427;-47
2023/02/18 09:18:55;;;;;;;12.55;5.93;;;;;;;-3.63;54.16;99147.38;5054060;28;20028;-47
2023/02/18 09:21:22;;;;;;;11.38;6.78;;;;;;;-3.82;55.20;99140.13;5054514;28;20355;-49
2023/02/18 09:23:48;;;;;;;11.00;7.00;;;;;;;-3.90;54.74;99105.53;5054471;28;20108;-48
2023/02/18 09:26:16;;;;;;;11.48;6.38;;;;;;;-3.70;54.60;99138.03;5055373;28;20029;-49
2023/02/18 09:28:42;;;;;;;9.65;6.28;;;;;;;-3.84;55.69;99125.41;5054455;28;20028;-49
2023/02/18 09:31:15;;;;;;;12.90;6.88;;;;;;;-3.80;55.39;99120.00;5054605;28;20037;-48
2023/02/18 09:33:45;;;;;;;12.07;6.65;;;;;;;-3.68;54.96;99118.75;5054414;28;20057;-51
2023/02/18 09:36:11;;;;;;;11.63;6.97;;;;;;;-3.67;55.68;99099.50;5054622;28;20029;-49
2023/02/18 09:38:36;;;;;;;11.88;6.22;;;;;;;-3.28;54.13;99102.59;5054257;28;20036;-47
2023/02/18 09:41:07;;;;;;;14.20;7.43;;;;;;;-3.37;55.09;99082.81;5054492;28;20059;-48
2023/02/18 09:43:34;;;;;;;10.40;7.00;;;;;;;-3.13;54.01;99102.03;5054830;28;20029;-49
2023/02/18 09:46:02;;;;;;;11.82;6.57;;;;;;;-3.01;53.63;99073.69;5054102;28;20064;-48
2023/02/18 09:48:34;;;;;;;14.05;7.55;;;;;;;-2.98;53.55;99095.38;5054134;28;20051;-49
2023/02/18 09:51:00;;;;;;;13.15;7.18;;;;;;;-2.92;53.19;99070.72;5054521;28;20035;-48
2023/02/18 09:53:26;;;;;;;11.65;7.18;;;;;;;-2.95;53.84;99090.03;5054280;28;20032;-49
2023/02/18 09:55:55;;;;;;;10.65;6.18;;;;;;;-2.72;52.69;99061.25;5053824;28;20439;-48
2023/02/18 09:58:30;;;;;;;12.88;7.32;;;;;;;-2.87;53.62;99042.59;5053888;28;20032;-48
2023/02/18 10:01:04;;;;;;;;;;;;;;;-2.60;52.75;99058.16;5054564;28;20032;-48
2023/02/18 10:03:30;;;;;;;12.25;6.45;;;;;;;-2.53;52.15;99037.78;5054197;28;19908;-47
2023/02/18 10:05:56;;;;;;;11.85;6.90;;;;;;;-2.27;52.14;99051.66;5053590;28;20032;-49
2023/02/18 10:08:29;;;;;;;13.77;8.13;;;;;;;-2.07;51.55;99032.47;5053354;28;20207;-47
2023/02/18 10:10:55;;;;;;;15.25;8.27;;;;;;;-2.10;51.58;99027.34;5054336;28;20448;-47
2023/02/18 10:13:24;;;;;;;10.20;5.38;;;;;;;-1.80;50.83;99030.47;5053926;28;20057;-48
2023/02/18 10:15:50;;;;;;;17.00;8.73;;;;;;;-1.79;50.45;99039.19;5053579;28;20039;-47
2023/02/18 10:18:22;;;;;;;11.40;6.15;;;;;;;-1.64;50.26;99019.28;5053614;28;20463;-47
2023/02/18 10:20:49;;;;;;;14.10;7.30;;;;;;;-1.89;51.26;99010.72;5054057;28;20111;-49
2023/02/18 10:23:17;;;;;;;15.25;8.90;;;;;;;-1.90;51.28;99001.13;5054236;28;20036;-50
2023/02/18 10:25:45;;;;;;;14.20;7.72;;;;;;;-1.74;49.90;99011.81;5053378;28;20106;-47
2023/02/18 10:28:11;;;;;;;10.50;7.07;;;;;;;-1.96;51.37;99037.28;5053400;28;20056;-52
2023/02/18 10:30:51;;;;;;;9.73;5.10;;;;;;;-1.83;51.33;98998.25;5053915;28;20028;-53
2023/02/18 10:33:45;;;;;;;14.77;8.95;;;;;;;-1.98;51.52;98990.09;5053719;28;20348;-50
2023/02/18 10:36:39;;;;;;;12.23;7.40;;;;;;;-1.44;50.56;98981.69;5053083;28;20114;-51
2023/02/18 10:39:24;;;;;;;13.93;8.30;;;;;;;-1.40;50.30;98972.75;5053086;28;20087;-50
2023/02/18 10:42:10;;;;;;;12.38;7.75;;;;;;;-1.12;49.99;98971.47;5053749;28;20060;-53
2023/02/18 10:44:53;;;;;;;12.18;7.90;;;;;;;-0.94;49.17;98963.66;5052905;28;20037;-52
2023/02/18 10:47:30;;;;;;;13.85;7.57;;;;;;;-0.63;48.48;98977.97;5053179;28;20123;-48
2023/02/18 10:49:59;;;;;;;15.43;8.45;;;;;;;-0.69;48.15;98997.50;5052847;28;20039;-50
2023/02/18 10:52:29;;;;;;;11.57;5.95;;;;;;;-0.60;48.28;98962.03;5052927;28;20447;-46
2023/02/18 10:55:03;;;;;;;16.65;9.40;;;;;;;-0.67;48.55;98939.59;5052704;28;20032;-47
2023/02/18 10:57:29;;;;;;;15.25;8.38;;;;;;;-0.70;47.64;98956.38;5053006;28;20142;-49
2023/02/18 10:59:59;;;;;;;14.80;8.68;;;;;;;-0.70;48.75;98937.13;5052919;28;20506;-47
2023/02/18 11:02:30;;;;;;;13.70;8.95;;;;;;;-0.52;48.19;98930.13;5052773;28;20231;-50
2023/02/18 11:04:57;;;;;;;15.40;9.05;;;;;;;-0.34;47.85;98954.63;5052378;28;20447;-49
2023/02/18 11:07:32;;;;;;;13.07;7.70;;;;;;;-0.19;47.33;98948.63;5052759;28;20086;-48
2023/02/18 11:10:00;;;;;;;14.68;8.05;;;;;;;-0.22;46.68;98946.16;5052762;28;20029;-49
2023/02/18 11:12:46;;;;;;;9.80;6.50;;;;;;;-0.25;47.13;98959.44;5052978;28;20375;-46
2023/02/18 11:15:24;;;;;;;12.52;8.30;;;;;;;-0.82;47.44;98912.28;5052491;28;20072;-48
2023/02/18 11:17:53;;;;;;;13.98;8.73;;;;;;;-0.78;47.42;98933.06;5052468;28;20033;-47
2023/02/18 11:20:32;;;;;;;15.32;8.15;;;;;;;-0.71;47.48;98931.00;5053256;28;20025;-49
2023/02/18 11:23:06;;;;;;;14.95;8.95;;;;;;;-0.78;47.45;98943.59;5052485;28;20048;-47
2023/02/18 11:25:54;;;;;;;18.35;8.07;;;;;;;-0.70;48.07;98932.72;5052332;28;20040;-48
2023/02/18 11:28:20;;;;;;;12.98;7.60;;;;;;;-0.68;47.34;98933.47;5053201;28;20172;-50
2023/02/18 11:30:49;;;;;;;12.70;8.07;;;;;;;-0.85;47.95;98915.91;5052670;28;20387;-50